Modale, Iowa
Current Conditions -  °F | °C
As of 5:54 AM on Saturday 20 Dec 2014 (Local Time) from KTQE Reporting Station
Haze Haze  
Wind Chill: 25°   Ceiling: 300
Heat Index: 32°   Visibility: 2.5mi
Dew Point: 30°   Wind: 8mph
Humidity: 92%   Direction: 140°SE
Pressure: 30.1"   Gusts: NA
Location:  41.62°N, 96.01°W
Report Text: KTQE 201154Z AUTO 14007KT 2 1/2SM BR OVC003 00/M01 A3010 RMK AO2 SLP201 T00001011 10000 20000 55004
Loading
Personal Weather Stations






























Interactive Weather Map New forecast layout! Learn more

10-Day Weather Forecast

Advertisements
Track Severe Weather on mobile